sensor_id;sensor_type;location;lat;lon;timestamp;temperature;humidity
42755;DHT22;28407;51.830;5.684;2022-09-03T00:02:06;21.30;43.20
42755;DHT22;28407;51.830;5.684;2022-09-03T00:04:27;21.30;43.20
42755;DHT22;28407;51.830;5.684;2022-09-03T00:06:39;21.20;43.20
42755;DHT22;28407;51.830;5.684;2022-09-03T00:11:32;21.30;43.40
42755;DHT22;28407;51.830;5.684;2022-09-03T00:13:43;21.20;43.40
42755;DHT22;28407;51.830;5.684;2022-09-03T00:15:44;21.20;43.50
42755;DHT22;28407;51.830;5.684;2022-09-03T00:18:07;21.20;43.50
42755;DHT22;28407;51.830;5.684;2022-09-03T00:20:24;21.20;43.60
42755;DHT22;28407;51.830;5.684;2022-09-03T00:22:32;21.10;43.50
42755;DHT22;28407;51.830;5.684;2022-09-03T00:24:38;21.10;43.60
42755;DHT22;28407;51.830;5.684;2022-09-03T00:26:43;21.10;43.70
42755;DHT22;28407;51.830;5.684;2022-09-03T00:28:58;21.10;43.70
42755;DHT22;28407;51.830;5.684;2022-09-03T00:31:09;21.10;43.80
42755;DHT22;28407;51.830;5.684;2022-09-03T00:33:27;21.10;43.80
42755;DHT22;28407;51.830;5.684;2022-09-03T00:35:36;21.00;43.80
42755;DHT22;28407;51.830;5.684;2022-09-03T00:37:40;21.00;43.90
42755;DHT22;28407;51.830;5.684;2022-09-03T00:39:41;21.00;44.00
42755;DHT22;28407;51.830;5.684;2022-09-03T00:46:59;21.00;44.20
42755;DHT22;28407;51.830;5.684;2022-09-03T00:49:10;21.00;44.20
42755;DHT22;28407;51.830;5.684;2022-09-03T00:51:23;20.90;44.20
42755;DHT22;28407;51.830;5.684;2022-09-03T00:53:56;20.90;44.90
42755;DHT22;28407;51.830;5.684;2022-09-03T00:56:13;20.90;44.30
42755;DHT22;28407;51.830;5.684;2022-09-03T01:00:55;20.80;44.40
42755;DHT22;28407;51.830;5.684;2022-09-03T01:03:17;20.80;44.40
42755;DHT22;28407;51.830;5.684;2022-09-03T01:05:40;20.80;44.50
42755;DHT22;28407;51.830;5.684;2022-09-03T01:10:24;20.70;44.60
42755;DHT22;28407;51.830;5.684;2022-09-03T01:12:46;20.70;44.60
42755;DHT22;28407;51.830;5.684;2022-09-03T01:17:16;20.70;44.70
42755;DHT22;28407;51.830;5.684;2022-09-03T01:21:50;20.70;44.80
42755;DHT22;28407;51.830;5.684;2022-09-03T01:24:17;20.70;44.90
42755;DHT22;28407;51.830;5.684;2022-09-03T01:30:37;20.70;45.10
42755;DHT22;28407;51.830;5.684;2022-09-03T01:44:45;20.60;45.20
42755;DHT22;28407;51.830;5.684;2022-09-03T01:49:18;20.60;45.30
42755;DHT22;28407;51.830;5.684;2022-09-03T01:51:26;20.60;45.30
42755;DHT22;28407;51.830;5.684;2022-09-03T01:58:30;20.50;45.50
42755;DHT22;28407;51.830;5.684;2022-09-03T02:00:34;20.50;45.60
42755;DHT22;28407;51.830;5.684;2022-09-03T02:02:42;20.50;45.60
42755;DHT22;28407;51.830;5.684;2022-09-03T02:05:10;20.40;45.60
42755;DHT22;28407;51.830;5.684;2022-09-03T02:07:10;20.50;45.70
42755;DHT22;28407;51.830;5.684;2022-09-03T02:09:11;20.40;45.60
42755;DHT22;28407;51.830;5.684;2022-09-03T02:11:11;20.40;45.70
42755;DHT22;28407;51.830;5.684;2022-09-03T02:13:19;20.40;45.70
42755;DHT22;28407;51.830;5.684;2022-09-03T02:15:22;20.40;45.80
42755;DHT22;28407;51.830;5.684;2022-09-03T02:17:24;20.40;45.80
42755;DHT22;28407;51.830;5.684;2022-09-03T02:19:26;20.40;45.90
42755;DHT22;28407;51.830;5.684;2022-09-03T02:21:33;20.40;45.90
42755;DHT22;28407;51.830;5.684;2022-09-03T02:23:37;20.40;45.90
42755;DHT22;28407;51.830;5.684;2022-09-03T02:25:44;20.40;45.90
42755;DHT22;28407;51.830;5.684;2022-09-03T02:27:48;20.40;45.90
42755;DHT22;28407;51.830;5.684;2022-09-03T02:29:49;20.40;45.90
42755;DHT22;28407;51.830;5.684;2022-09-03T02:31:50;20.40;45.90
42755;DHT22;28407;51.830;5.684;2022-09-03T02:33:51;20.40;46.00
42755;DHT22;28407;51.830;5.684;2022-09-03T02:35:52;20.40;46.00
42755;DHT22;28407;51.830;5.684;2022-09-03T02:37:53;20.40;46.00
42755;DHT22;28407;51.830;5.684;2022-09-03T02:39:53;20.40;46.10
42755;DHT22;28407;51.830;5.684;2022-09-03T02:41:55;20.40;46.10
42755;DHT22;28407;51.830;5.684;2022-09-03T02:44:07;20.40;46.20
42755;DHT22;28407;51.830;5.684;2022-09-03T02:46:13;20.30;46.20
42755;DHT22;28407;51.830;5.684;2022-09-03T02:48:19;20.30;46.20
42755;DHT22;28407;51.830;5.684;2022-09-03T02:50:22;20.30;46.20
42755;DHT22;28407;51.830;5.684;2022-09-03T02:52:23;20.30;46.30
42755;DHT22;28407;51.830;5.684;2022-09-03T02:54:23;20.30;46.40
42755;DHT22;28407;51.830;5.684;2022-09-03T02:56:24;20.30;46.50
42755;DHT22;28407;51.830;5.684;2022-09-03T02:58:28;20.30;46.60
42755;DHT22;28407;51.830;5.684;2022-09-03T03:00:28;20.20;46.60
42755;DHT22;28407;51.830;5.684;2022-09-03T03:02:29;20.20;46.70
42755;DHT22;28407;51.830;5.684;2022-09-03T03:04:30;20.20;46.80
42755;DHT22;28407;51.830;5.684;2022-09-03T03:06:31;20.10;46.80
42755;DHT22;28407;51.830;5.684;2022-09-03T03:08:32;20.10;46.90
42755;DHT22;28407;51.830;5.684;2022-09-03T03:10:34;20.10;47.00
42755;DHT22;28407;51.830;5.684;2022-09-03T03:12:35;20.10;47.10
42755;DHT22;28407;51.830;5.684;2022-09-03T03:14:36;20.10;47.10
42755;DHT22;28407;51.830;5.684;2022-09-03T03:16:36;20.00;47.10
42755;DHT22;28407;51.830;5.684;2022-09-03T03:18:37;20.10;47.20
42755;DHT22;28407;51.830;5.684;2022-09-03T03:20:39;20.00;47.20
42755;DHT22;28407;51.830;5.684;2022-09-03T03:22:40;20.00;47.20
42755;DHT22;28407;51.830;5.684;2022-09-03T03:24:40;20.00;47.20
42755;DHT22;28407;51.830;5.684;2022-09-03T03:26:41;20.00;47.20
42755;DHT22;28407;51.830;5.684;2022-09-03T03:28:42;20.00;47.30
42755;DHT22;28407;51.830;5.684;2022-09-03T03:30:42;20.00;47.30
42755;DHT22;28407;51.830;5.684;2022-09-03T03:32:46;20.00;47.30
42755;DHT22;28407;51.830;5.684;2022-09-03T03:34:47;20.00;47.30
42755;DHT22;28407;51.830;5.684;2022-09-03T03:36:47;20.00;47.30
42755;DHT22;28407;51.830;5.684;2022-09-03T03:38:48;19.90;47.30
42755;DHT22;28407;51.830;5.684;2022-09-03T03:40:49;19.90;47.30
42755;DHT22;28407;51.830;5.684;2022-09-03T03:42:49;19.90;47.30
42755;DHT22;28407;51.830;5.684;2022-09-03T03:44:50;19.90;47.40
42755;DHT22;28407;51.830;5.684;2022-09-03T03:46:50;19.80;47.40
42755;DHT22;28407;51.830;5.684;2022-09-03T03:48:51;19.80;47.50
42755;DHT22;28407;51.830;5.684;2022-09-03T03:50:52;19.80;47.50
42755;DHT22;28407;51.830;5.684;2022-09-03T03:52:53;19.80;47.60
42755;DHT22;28407;51.830;5.684;2022-09-03T03:54:53;19.80;47.60
42755;DHT22;28407;51.830;5.684;2022-09-03T03:56:54;19.70;47.60
42755;DHT22;28407;51.830;5.684;2022-09-03T03:58:55;19.70;47.60
42755;DHT22;28407;51.830;5.684;2022-09-03T04:01:06;19.70;47.80
42755;DHT22;28407;51.830;5.684;2022-09-03T04:03:07;19.70;47.80
42755;DHT22;28407;51.830;5.684;2022-09-03T04:05:08;19.70;47.80
42755;DHT22;28407;51.830;5.684;2022-09-03T04:07:08;19.70;47.80
42755;DHT22;28407;51.830;5.684;2022-09-03T04:09:09;19.70;47.80
42755;DHT22;28407;51.830;5.684;2022-09-03T04:11:11;19.70;47.80
42755;DHT22;28407;51.830;5.684;2022-09-03T04:13:12;19.70;47.80
42755;DHT22;28407;51.830;5.684;2022-09-03T04:15:12;19.60;47.80
42755;DHT22;28407;51.830;5.684;2022-09-03T04:17:13;19.60;47.80
42755;DHT22;28407;51.830;5.684;2022-09-03T04:19:14;19.60;47.90
42755;DHT22;28407;51.830;5.684;2022-09-03T04:21:17;19.60;48.50
42755;DHT22;28407;51.830;5.684;2022-09-03T04:23:18;19.60;47.90
42755;DHT22;28407;51.830;5.684;2022-09-03T04:25:19;19.70;48.00
42755;DHT22;28407;51.830;5.684;2022-09-03T04:27:20;19.60;47.90
42755;DHT22;28407;51.830;5.684;2022-09-03T04:29:20;19.60;48.00
42755;DHT22;28407;51.830;5.684;2022-09-03T04:31:21;19.60;48.00
42755;DHT22;28407;51.830;5.684;2022-09-03T04:33:24;19.60;48.00
42755;DHT22;28407;51.830;5.684;2022-09-03T04:35:25;19.60;48.00
42755;DHT22;28407;51.830;5.684;2022-09-03T04:37:31;19.50;48.10
42755;DHT22;28407;51.830;5.684;2022-09-03T04:39:32;19.50;48.10
42755;DHT22;28407;51.830;5.684;2022-09-03T04:41:33;19.50;48.10
42755;DHT22;28407;51.830;5.684;2022-09-03T04:43:33;19.50;48.20
42755;DHT22;28407;51.830;5.684;2022-09-03T04:45:34;19.50;48.20
42755;DHT22;28407;51.830;5.684;2022-09-03T04:47:34;19.40;48.20
42755;DHT22;28407;51.830;5.684;2022-09-03T04:49:36;19.40;48.30
42755;DHT22;28407;51.830;5.684;2022-09-03T04:51:39;19.40;48.40
42755;DHT22;28407;51.830;5.684;2022-09-03T04:53:42;19.40;48.50
42755;DHT22;28407;51.830;5.684;2022-09-03T04:55:42;19.30;48.50
42755;DHT22;28407;51.830;5.684;2022-09-03T04:57:43;19.30;48.60
42755;DHT22;28407;51.830;5.684;2022-09-03T04:59:44;19.30;48.70
42755;DHT22;28407;51.830;5.684;2022-09-03T05:01:44;19.20;48.70
42755;DHT22;28407;51.830;5.684;2022-09-03T05:03:45;19.20;48.80
42755;DHT22;28407;51.830;5.684;2022-09-03T05:05:54;19.20;48.80
42755;DHT22;28407;51.830;5.684;2022-09-03T05:07:57;19.20;48.90
42755;DHT22;28407;51.830;5.684;2022-09-03T05:09:58;19.20;48.90
42755;DHT22;28407;51.830;5.684;2022-09-03T05:11:58;19.10;48.90
42755;DHT22;28407;51.830;5.684;2022-09-03T05:13:59;19.20;48.90
42755;DHT22;28407;51.830;5.684;2022-09-03T05:16:01;19.10;49.00
42755;DHT22;28407;51.830;5.684;2022-09-03T05:18:03;19.10;49.00
42755;DHT22;28407;51.830;5.684;2022-09-03T05:20:04;19.10;49.20
42755;DHT22;28407;51.830;5.684;2022-09-03T05:22:06;19.00;49.20
42755;DHT22;28407;51.830;5.684;2022-09-03T05:24:08;19.10;49.30
42755;DHT22;28407;51.830;5.684;2022-09-03T05:26:13;19.10;49.30
42755;DHT22;28407;51.830;5.684;2022-09-03T05:28:14;19.00;49.20
42755;DHT22;28407;51.830;5.684;2022-09-03T05:30:15;19.00;49.30
42755;DHT22;28407;51.830;5.684;2022-09-03T05:32:15;19.00;49.40
42755;DHT22;28407;51.830;5.684;2022-09-03T05:34:16;19.00;49.50
42755;DHT22;28407;51.830;5.684;2022-09-03T05:36:22;19.00;49.50
42755;DHT22;28407;51.830;5.684;2022-09-03T05:38:23;19.00;49.50
42755;DHT22;28407;51.830;5.684;2022-09-03T05:40:23;19.00;49.60
42755;DHT22;28407;51.830;5.684;2022-09-03T05:42:24;19.00;49.60
42755;DHT22;28407;51.830;5.684;2022-09-03T05:44:25;19.00;49.60
42755;DHT22;28407;51.830;5.684;2022-09-03T05:46:28;19.00;49.80
42755;DHT22;28407;51.830;5.684;2022-09-03T05:48:34;19.00;49.70
42755;DHT22;28407;51.830;5.684;2022-09-03T05:50:35;19.00;49.70
42755;DHT22;28407;51.830;5.684;2022-09-03T05:52:36;19.00;49.80
42755;DHT22;28407;51.830;5.684;2022-09-03T05:54:37;19.00;49.80
42755;DHT22;28407;51.830;5.684;2022-09-03T05:56:38;19.00;49.90
42755;DHT22;28407;51.830;5.684;2022-09-03T05:58:40;19.00;49.90
42755;DHT22;28407;51.830;5.684;2022-09-03T06:00:44;19.00;49.90
42755;DHT22;28407;51.830;5.684;2022-09-03T06:02:51;19.00;50.00
42755;DHT22;28407;51.830;5.684;2022-09-03T06:04:52;19.00;50.10
42755;DHT22;28407;51.830;5.684;2022-09-03T06:06:52;19.00;50.10
42755;DHT22;28407;51.830;5.684;2022-09-03T06:08:58;19.00;50.10
42755;DHT22;28407;51.830;5.684;2022-09-03T06:11:00;19.00;50.20
42755;DHT22;28407;51.830;5.684;2022-09-03T06:13:03;19.00;50.20
42755;DHT22;28407;51.830;5.684;2022-09-03T06:15:04;19.10;50.20
42755;DHT22;28407;51.830;5.684;2022-09-03T06:17:05;19.10;50.20
42755;DHT22;28407;51.830;5.684;2022-09-03T06:19:06;19.20;50.20
42755;DHT22;28407;51.830;5.684;2022-09-03T06:21:08;19.10;50.20
42755;DHT22;28407;51.830;5.684;2022-09-03T06:23:09;19.20;50.10
42755;DHT22;28407;51.830;5.684;2022-09-03T06:25:10;19.20;50.10
42755;DHT22;28407;51.830;5.684;2022-09-03T06:27:11;19.20;50.20
42755;DHT22;28407;51.830;5.684;2022-09-03T06:29:12;19.20;50.20
42755;DHT22;28407;51.830;5.684;2022-09-03T06:31:15;19.20;50.20
42755;DHT22;28407;51.830;5.684;2022-09-03T06:33:16;19.20;50.10
42755;DHT22;28407;51.830;5.684;2022-09-03T06:35:18;19.20;50.10
42755;DHT22;28407;51.830;5.684;2022-09-03T06:37:18;19.30;50.10
42755;DHT22;28407;51.830;5.684;2022-09-03T06:39:19;19.30;50.10
42755;DHT22;28407;51.830;5.684;2022-09-03T06:41:22;19.30;50.10
42755;DHT22;28407;51.830;5.684;2022-09-03T06:43:24;19.30;50.10
42755;DHT22;28407;51.830;5.684;2022-09-03T06:45:26;19.30;50.10
42755;DHT22;28407;51.830;5.684;2022-09-03T06:47:27;19.40;50.10
42755;DHT22;28407;51.830;5.684;2022-09-03T06:49:28;19.30;50.00
42755;DHT22;28407;51.830;5.684;2022-09-03T06:51:31;19.40;50.10
42755;DHT22;28407;51.830;5.684;2022-09-03T06:53:34;19.40;50.10
42755;DHT22;28407;51.830;5.684;2022-09-03T06:55:35;19.40;50.00
42755;DHT22;28407;51.830;5.684;2022-09-03T06:57:39;19.50;50.00
42755;DHT22;28407;51.830;5.684;2022-09-03T06:59:39;19.50;50.00
42755;DHT22;28407;51.830;5.684;2022-09-03T07:01:41;19.60;50.00
42755;DHT22;28407;51.830;5.684;2022-09-03T07:03:44;19.60;49.90
42755;DHT22;28407;51.830;5.684;2022-09-03T07:05:46;19.60;49.90
42755;DHT22;28407;51.830;5.684;2022-09-03T07:07:46;19.60;49.80
42755;DHT22;28407;51.830;5.684;2022-09-03T07:09:47;19.60;49.80
42755;DHT22;28407;51.830;5.684;2022-09-03T07:11:48;19.70;49.90
42755;DHT22;28407;51.830;5.684;2022-09-03T07:13:50;19.70;49.90
42755;DHT22;28407;51.830;5.684;2022-09-03T07:16:04;19.70;49.80
42755;DHT22;28407;51.830;5.684;2022-09-03T07:18:05;19.80;49.80
42755;DHT22;28407;51.830;5.684;2022-09-03T07:20:05;19.80;49.60
42755;DHT22;28407;51.830;5.684;2022-09-03T07:22:06;19.80;49.50
42755;DHT22;28407;51.830;5.684;2022-09-03T07:24:09;19.90;49.50
42755;DHT22;28407;51.830;5.684;2022-09-03T07:26:12;20.00;49.40
42755;DHT22;28407;51.830;5.684;2022-09-03T07:28:13;20.00;49.20
42755;DHT22;28407;51.830;5.684;2022-09-03T07:30:13;20.10;49.00
42755;DHT22;28407;51.830;5.684;2022-09-03T07:32:14;20.10;48.90
42755;DHT22;28407;51.830;5.684;2022-09-03T07:34:14;20.10;48.70
42755;DHT22;28407;51.830;5.684;2022-09-03T07:36:16;20.20;48.60
42755;DHT22;28407;51.830;5.684;2022-09-03T07:38:17;20.20;48.50
42755;DHT22;28407;51.830;5.684;2022-09-03T07:40:19;20.30;48.50
42755;DHT22;28407;51.830;5.684;2022-09-03T07:42:19;20.30;48.40
42755;DHT22;28407;51.830;5.684;2022-09-03T07:44:20;20.30;48.30
42755;DHT22;28407;51.830;5.684;2022-09-03T07:46:25;20.40;48.30
42755;DHT22;28407;51.830;5.684;2022-09-03T07:48:26;20.40;48.20
42755;DHT22;28407;51.830;5.684;2022-09-03T07:50:27;20.50;48.10
42755;DHT22;28407;51.830;5.684;2022-09-03T07:52:30;20.50;48.00
42755;DHT22;28407;51.830;5.684;2022-09-03T07:54:30;20.60;47.90
42755;DHT22;28407;51.830;5.684;2022-09-03T07:56:31;20.60;47.90
42755;DHT22;28407;51.830;5.684;2022-09-03T07:58:35;20.70;47.80
42755;DHT22;28407;51.830;5.684;2022-09-03T08:00:35;20.70;47.70
42755;DHT22;28407;51.830;5.684;2022-09-03T08:02:36;20.80;47.60
42755;DHT22;28407;51.830;5.684;2022-09-03T08:04:37;20.80;47.50
42755;DHT22;28407;51.830;5.684;2022-09-03T08:06:38;20.80;47.50
42755;DHT22;28407;51.830;5.684;2022-09-03T08:08:40;20.90;47.40
42755;DHT22;28407;51.830;5.684;2022-09-03T08:10:40;20.90;47.30
42755;DHT22;28407;51.830;5.684;2022-09-03T08:12:41;20.90;47.20
42755;DHT22;28407;51.830;5.684;2022-09-03T08:14:42;21.00;47.20
42755;DHT22;28407;51.830;5.684;2022-09-03T08:16:44;21.00;47.10
42755;DHT22;28407;51.830;5.684;2022-09-03T08:18:47;21.10;47.10
42755;DHT22;28407;51.830;5.684;2022-09-03T08:20:50;21.10;47.00
42755;DHT22;28407;51.830;5.684;2022-09-03T08:22:51;21.20;47.00
42755;DHT22;28407;51.830;5.684;2022-09-03T08:24:51;21.20;47.40
42755;DHT22;28407;51.830;5.684;2022-09-03T08:26:55;21.30;47.40
42755;DHT22;28407;51.830;5.684;2022-09-03T08:28:55;21.30;46.70
42755;DHT22;28407;51.830;5.684;2022-09-03T08:30:56;21.30;46.60
42755;DHT22;28407;51.830;5.684;2022-09-03T08:33:00;21.40;46.60
42755;DHT22;28407;51.830;5.684;2022-09-03T08:35:01;21.40;46.50
42755;DHT22;28407;51.830;5.684;2022-09-03T08:37:01;21.50;46.50
42755;DHT22;28407;51.830;5.684;2022-09-03T08:39:06;21.50;46.40
42755;DHT22;28407;51.830;5.684;2022-09-03T08:41:19;21.50;46.30
42755;DHT22;28407;51.830;5.684;2022-09-03T08:43:20;21.60;46.30
42755;DHT22;28407;51.830;5.684;2022-09-03T08:45:21;21.70;46.30
42755;DHT22;28407;51.830;5.684;2022-09-03T08:51:55;21.80;46.00
42755;DHT22;28407;51.830;5.684;2022-09-03T08:53:58;21.80;45.90
42755;DHT22;28407;51.830;5.684;2022-09-03T08:56:06;21.80;45.80
42755;DHT22;28407;51.830;5.684;2022-09-03T08:58:18;21.80;45.70
42755;DHT22;28407;51.830;5.684;2022-09-03T09:00:21;21.90;45.70
42755;DHT22;28407;51.830;5.684;2022-09-03T09:04:55;22.00;45.70
42755;DHT22;28407;51.830;5.684;2022-09-03T09:06:59;22.00;45.70
42755;DHT22;28407;51.830;5.684;2022-09-03T09:09:32;22.10;45.60
42755;DHT22;28407;51.830;5.684;2022-09-03T09:12:03;22.10;45.50
42755;DHT22;28407;51.830;5.684;2022-09-03T09:16:22;22.10;45.20
42755;DHT22;28407;51.830;5.684;2022-09-03T09:21:17;22.20;45.10
42755;DHT22;28407;51.830;5.684;2022-09-03T09:23:30;22.30;45.10
42755;DHT22;28407;51.830;5.684;2022-09-03T09:25:33;22.40;45.00
42755;DHT22;28407;51.830;5.684;2022-09-03T09:30:03;22.50;44.80
42755;DHT22;28407;51.830;5.684;2022-09-03T09:32:07;22.50;44.80
42755;DHT22;28407;51.830;5.684;2022-09-03T09:34:08;22.50;44.70
42755;DHT22;28407;51.830;5.684;2022-09-03T09:36:12;22.60;44.60
42755;DHT22;28407;51.830;5.684;2022-09-03T09:38:27;22.60;44.50
42755;DHT22;28407;51.830;5.684;2022-09-03T09:40:34;22.70;44.50
42755;DHT22;28407;51.830;5.684;2022-09-03T09:42:35;22.70;44.40
42755;DHT22;28407;51.830;5.684;2022-09-03T09:44:38;22.70;44.30
42755;DHT22;28407;51.830;5.684;2022-09-03T09:46:39;22.80;44.40
42755;DHT22;28407;51.830;5.684;2022-09-03T09:48:48;22.80;44.30
42755;DHT22;28407;51.830;5.684;2022-09-03T09:50:49;22.80;44.20
42755;DHT22;28407;51.830;5.684;2022-09-03T09:53:04;22.90;44.20
42755;DHT22;28407;51.830;5.684;2022-09-03T09:55:18;23.00;44.10
42755;DHT22;28407;51.830;5.684;2022-09-03T09:57:24;23.00;44.00
42755;DHT22;28407;51.830;5.684;2022-09-03T09:59:24;23.10;43.90
42755;DHT22;28407;51.830;5.684;2022-09-03T10:01:25;23.10;43.80
42755;DHT22;28407;51.830;5.684;2022-09-03T10:03:31;23.20;43.90
42755;DHT22;28407;51.830;5.684;2022-09-03T10:05:34;23.30;43.90
42755;DHT22;28407;51.830;5.684;2022-09-03T10:07:38;23.30;43.70
42755;DHT22;28407;51.830;5.684;2022-09-03T10:09:39;23.40;43.60
42755;DHT22;28407;51.830;5.684;2022-09-03T10:11:43;23.40;43.60
42755;DHT22;28407;51.830;5.684;2022-09-03T10:13:46;23.50;43.60
42755;DHT22;28407;51.830;5.684;2022-09-03T10:16:03;23.60;43.60
42755;DHT22;28407;51.830;5.684;2022-09-03T10:22:53;23.70;43.20
42755;DHT22;28407;51.830;5.684;2022-09-03T10:24:58;23.80;43.20
42755;DHT22;28407;51.830;5.684;2022-09-03T10:27:01;23.90;43.20
42755;DHT22;28407;51.830;5.684;2022-09-03T10:29:03;23.90;43.10
42755;DHT22;28407;51.830;5.684;2022-09-03T10:31:16;24.00;43.00
42755;DHT22;28407;51.830;5.684;2022-09-03T10:33:41;24.00;42.90
42755;DHT22;28407;51.830;5.684;2022-09-03T10:35:49;24.10;42.80
42755;DHT22;28407;51.830;5.684;2022-09-03T10:38:17;24.10;42.90
42755;DHT22;28407;51.830;5.684;2022-09-03T10:40:34;24.20;42.70
42755;DHT22;28407;51.830;5.684;2022-09-03T10:45:30;24.40;42.60
42755;DHT22;28407;51.830;5.684;2022-09-03T10:48:03;24.40;42.50
42755;DHT22;28407;51.830;5.684;2022-09-03T10:50:15;24.50;42.50
42755;DHT22;28407;51.830;5.684;2022-09-03T10:52:29;24.60;42.30
42755;DHT22;28407;51.830;5.684;2022-09-03T10:54:37;24.70;42.20
42755;DHT22;28407;51.830;5.684;2022-09-03T11:03:48;24.90;41.70
42755;DHT22;28407;51.830;5.684;2022-09-03T11:06:06;25.00;41.70
42755;DHT22;28407;51.830;5.684;2022-09-03T11:08:17;25.10;41.70
42755;DHT22;28407;51.830;5.684;2022-09-03T11:10:32;25.10;41.70
42755;DHT22;28407;51.830;5.684;2022-09-03T11:12:47;25.20;41.60
42755;DHT22;28407;51.830;5.684;2022-09-03T11:14:54;25.30;41.50
42755;DHT22;28407;51.830;5.684;2022-09-03T11:17:38;25.40;41.40
42755;DHT22;28407;51.830;5.684;2022-09-03T11:19:47;25.60;41.30
42755;DHT22;28407;51.830;5.684;2022-09-03T11:21:51;25.60;41.30
42755;DHT22;28407;51.830;5.684;2022-09-03T11:26:06;25.80;41.10
42755;DHT22;28407;51.830;5.684;2022-09-03T11:28:33;25.80;41.00
42755;DHT22;28407;51.830;5.684;2022-09-03T11:31:02;25.90;40.90
42755;DHT22;28407;51.830;5.684;2022-09-03T11:33:09;26.00;40.90
42755;DHT22;28407;51.830;5.684;2022-09-03T11:35:25;26.00;40.70
42755;DHT22;28407;51.830;5.684;2022-09-03T11:37:29;26.10;41.20
42755;DHT22;28407;51.830;5.684;2022-09-03T11:39:35;26.20;40.50
42755;DHT22;28407;51.830;5.684;2022-09-03T11:41:38;26.20;40.40
42755;DHT22;28407;51.830;5.684;2022-09-03T11:43:39;26.30;40.50
42755;DHT22;28407;51.830;5.684;2022-09-03T11:45:40;26.30;40.40
42755;DHT22;28407;51.830;5.684;2022-09-03T11:47:42;26.40;40.20
42755;DHT22;28407;51.830;5.684;2022-09-03T11:50:27;26.50;40.10
42755;DHT22;28407;51.830;5.684;2022-09-03T11:52:08;26.60;40.00
42755;DHT22;28407;51.830;5.684;2022-09-03T11:56:17;26.70;39.80
42755;DHT22;28407;51.830;5.684;2022-09-03T11:58:28;26.70;39.80
42755;DHT22;28407;51.830;5.684;2022-09-03T12:00:29;26.80;39.70
42755;DHT22;28407;51.830;5.684;2022-09-03T12:02:31;26.90;39.60
42755;DHT22;28407;51.830;5.684;2022-09-03T12:04:43;26.90;39.50
42755;DHT22;28407;51.830;5.684;2022-09-03T12:12:03;27.20;39.30
42755;DHT22;28407;51.830;5.684;2022-09-03T12:14:18;27.20;39.10
42755;DHT22;28407;51.830;5.684;2022-09-03T12:18:35;27.30;39.00
42755;DHT22;28407;51.830;5.684;2022-09-03T12:20:37;27.50;39.10
42755;DHT22;28407;51.830;5.684;2022-09-03T12:22:38;27.50;38.90
42755;DHT22;28407;51.830;5.684;2022-09-03T12:24:39;27.60;38.80
42755;DHT22;28407;51.830;5.684;2022-09-03T12:26:43;27.60;38.60
42755;DHT22;28407;51.830;5.684;2022-09-03T12:28:47;27.70;38.70
42755;DHT22;28407;51.830;5.684;2022-09-03T12:30:49;27.70;38.60
42755;DHT22;28407;51.830;5.684;2022-09-03T12:33:02;27.80;38.60
42755;DHT22;28407;51.830;5.684;2022-09-03T12:35:19;27.90;38.60
42755;DHT22;28407;51.830;5.684;2022-09-03T12:37:22;28.00;38.60
42755;DHT22;28407;51.830;5.684;2022-09-03T12:39:26;28.10;38.50
42755;DHT22;28407;51.830;5.684;2022-09-03T12:41:28;28.20;38.40
42755;DHT22;28407;51.830;5.684;2022-09-03T12:43:30;28.30;38.30
42755;DHT22;28407;51.830;5.684;2022-09-03T12:45:30;28.40;38.20
42755;DHT22;28407;51.830;5.684;2022-09-03T12:47:38;28.40;38.00
42755;DHT22;28407;51.830;5.684;2022-09-03T12:49:41;28.50;37.90
42755;DHT22;28407;51.830;5.684;2022-09-03T12:51:42;28.60;38.00
42755;DHT22;28407;51.830;5.684;2022-09-03T12:53:45;28.70;37.80
42755;DHT22;28407;51.830;5.684;2022-09-03T12:55:50;28.70;37.70
42755;DHT22;28407;51.830;5.684;2022-09-03T12:58:04;28.80;37.70
42755;DHT22;28407;51.830;5.684;2022-09-03T13:00:08;28.90;37.60
42755;DHT22;28407;51.830;5.684;2022-09-03T13:02:17;29.00;37.50
42755;DHT22;28407;51.830;5.684;2022-09-03T13:04:27;29.10;37.40
42755;DHT22;28407;51.830;5.684;2022-09-03T13:06:41;29.20;37.30
42755;DHT22;28407;51.830;5.684;2022-09-03T13:08:47;29.20;37.20
42755;DHT22;28407;51.830;5.684;2022-09-03T13:10:54;29.30;37.20
42755;DHT22;28407;51.830;5.684;2022-09-03T13:13:00;29.30;37.10
42755;DHT22;28407;51.830;5.684;2022-09-03T13:15:07;29.40;37.00
42755;DHT22;28407;51.830;5.684;2022-09-03T13:19:35;29.60;36.80
42755;DHT22;28407;51.830;5.684;2022-09-03T13:21:50;29.60;36.80
42755;DHT22;28407;51.830;5.684;2022-09-03T13:33:16;29.90;36.60
42755;DHT22;28407;51.830;5.684;2022-09-03T13:35:37;29.90;36.60
42755;DHT22;28407;51.830;5.684;2022-09-03T13:37:44;29.90;36.40
42755;DHT22;28407;51.830;5.684;2022-09-03T13:39:53;30.00;36.50
42755;DHT22;28407;51.830;5.684;2022-09-03T13:42:12;30.00;36.40
42755;DHT22;28407;51.830;5.684;2022-09-03T13:44:33;30.10;36.20
42755;DHT22;28407;51.830;5.684;2022-09-03T13:46:44;30.20;36.20
42755;DHT22;28407;51.830;5.684;2022-09-03T13:48:47;30.20;36.20
42755;DHT22;28407;51.830;5.684;2022-09-03T13:51:12;30.30;36.20
42755;DHT22;28407;51.830;5.684;2022-09-03T13:56:03;30.40;35.80
42755;DHT22;28407;51.830;5.684;2022-09-03T13:58:05;30.50;35.80
42755;DHT22;28407;51.830;5.684;2022-09-03T14:00:10;30.50;35.80
42755;DHT22;28407;51.830;5.684;2022-09-03T14:02:50;30.60;35.60
42755;DHT22;28407;51.830;5.684;2022-09-03T14:05:12;30.60;35.50
42755;DHT22;28407;51.830;5.684;2022-09-03T14:10:00;30.60;35.30
42755;DHT22;28407;51.830;5.684;2022-09-03T14:14:43;30.70;35.40
42755;DHT22;28407;51.830;5.684;2022-09-03T14:16:58;30.70;35.30
42755;DHT22;28407;51.830;5.684;2022-09-03T14:19:05;30.70;35.30
42755;DHT22;28407;51.830;5.684;2022-09-03T14:21:24;30.70;35.20
42755;DHT22;28407;51.830;5.684;2022-09-03T14:23:42;30.70;35.10
42755;DHT22;28407;51.830;5.684;2022-09-03T14:25:55;30.70;35.10
42755;DHT22;28407;51.830;5.684;2022-09-03T14:28:19;30.70;35.00
42755;DHT22;28407;51.830;5.684;2022-09-03T14:30:38;30.70;34.90
42755;DHT22;28407;51.830;5.684;2022-09-03T14:33:03;30.70;35.00
42755;DHT22;28407;51.830;5.684;2022-09-03T14:35:17;30.70;35.00
42755;DHT22;28407;51.830;5.684;2022-09-03T14:40:03;30.60;34.80
42755;DHT22;28407;51.830;5.684;2022-09-03T14:52:04;30.50;34.80
42755;DHT22;28407;51.830;5.684;2022-09-03T14:54:26;30.50;34.80
42755;DHT22;28407;51.830;5.684;2022-09-03T15:01:26;30.40;34.80
42755;DHT22;28407;51.830;5.684;2022-09-03T15:10:57;30.20;35.50
42755;DHT22;28407;51.830;5.684;2022-09-03T15:13:11;30.10;34.90
42755;DHT22;28407;51.830;5.684;2022-09-03T15:19:48;29.90;35.00
42755;DHT22;28407;51.830;5.684;2022-09-03T15:22:12;29.90;35.10
42755;DHT22;28407;51.830;5.684;2022-09-03T15:26:54;29.90;35.10
42755;DHT22;28407;51.830;5.684;2022-09-03T15:29:02;29.80;35.10